Time;durP1;ratioP1;P1;durP2;ratioP2;P2;SDS_P1;SDS_P2;PMS_P1;PMS_P2;Temp;Humidity;BMP_temperature;BMP_pressure;BME280_temperature;BME280_humidity;BME280_pressure;Samples;Min_cycle;Max_cycle;Signal;HPM_P1;HPM_P2
2022/01/09 00:02:27;;;;;;;51.00;46.72;;;;;;;0.87;80.41;99255.50;5027617;28;20111;-68
2022/01/09 00:04:53;;;;;;;17.67;10.38;;;;;;;0.90;80.13;99243.34;5026439;28;20044;-68
2022/01/09 00:07:20;;;;;;;22.02;18.90;;;;;;;0.93;80.43;99226.88;5027299;28;20468;-69
2022/01/09 00:09:46;;;;;;;21.45;13.75;;;;;;;1.12;79.62;99225.31;5026090;28;20073;-69
2022/01/09 00:12:12;;;;;;;40.45;36.72;;;;;;;0.90;80.33;99222.69;5027442;28;20092;-68
2022/01/09 00:14:39;;;;;;;21.55;13.07;;;;;;;0.99;80.21;99213.78;5025640;28;20095;-68
2022/01/09 00:17:06;;;;;;;52.60;48.78;;;;;;;0.94;79.90;99221.69;5026734;28;20123;-69
2022/01/09 00:19:34;;;;;;;319.25;293.13;;;;;;;1.08;79.30;99217.72;5024757;28;20050;-69
2022/01/09 00:22:00;;;;;;;20.50;18.55;;;;;;;0.95;79.80;99212.19;5026581;28;20115;-69
2022/01/09 00:24:27;;;;;;;17.65;12.68;;;;;;;0.91;80.11;99198.56;5026187;28;20567;-69
2022/01/09 00:26:53;;;;;;;18.75;16.23;;;;;;;1.13;79.28;99193.44;5026284;28;20099;-69
2022/01/09 00:29:20;;;;;;;15.82;9.95;;;;;;;1.26;78.71;99196.38;5029370;28;20609;-69
2022/01/09 00:31:46;;;;;;;13.32;10.70;;;;;;;1.55;77.18;99175.44;5029005;28;20049;-69
2022/01/09 00:34:12;;;;;;;13.88;12.05;;;;;;;1.40;77.93;99179.44;5029701;28;20069;-69
2022/01/09 00:36:40;;;;;;;18.52;16.33;;;;;;;1.44;77.68;99182.78;5030172;28;20076;-69
2022/01/09 00:39:06;;;;;;;17.75;8.73;;;;;;;1.60;77.24;99168.34;5029229;28;20065;-69
2022/01/09 00:41:33;;;;;;;20.05;12.00;;;;;;;1.72;76.61;99172.16;5021686;28;20049;-69
2022/01/09 00:43:59;;;;;;;19.10;13.45;;;;;;;1.42;77.77;99158.75;5029116;28;20069;-69
2022/01/09 00:46:25;;;;;;;18.85;11.02;;;;;;;1.67;76.67;99154.25;5029838;28;20049;-69
2022/01/09 00:48:52;;;;;;;10.52;9.40;;;;;;;1.57;77.34;99154.69;5028743;28;20049;-69
2022/01/09 00:51:18;;;;;;;16.40;9.25;;;;;;;1.77;76.24;99159.91;5029908;28;20069;-69
2022/01/09 00:53:46;;;;;;;14.45;8.23;;;;;;;1.29;78.01;99149.81;5029347;28;20521;-69
2022/01/09 00:56:12;;;;;;;13.85;11.25;;;;;;;1.39;77.71;99141.63;5029616;28;20049;-69
2022/01/09 00:58:38;;;;;;;18.13;16.48;;;;;;;1.27;78.04;99133.53;5029064;28;20445;-69
2022/01/09 01:01:05;;;;;;;47.42;43.58;;;;;;;1.20;78.27;99132.09;5029210;28;20073;-69
2022/01/09 01:03:31;;;;;;;13.02;11.52;;;;;;;1.34;77.92;99132.38;5029620;28;20480;-69
2022/01/09 01:05:57;;;;;;;16.52;8.23;;;;;;;1.55;77.16;99135.84;5029025;28;20497;-69
2022/01/09 01:08:24;;;;;;;10.60;9.55;;;;;;;1.47;77.17;99120.66;5028913;28;20053;-68
2022/01/09 01:10:51;;;;;;;103.60;96.57;;;;;;;1.32;77.40;99129.03;5029129;28;20037;-69
2022/01/09 01:13:18;;;;;;;17.42;15.70;;;;;;;1.39;77.48;99113.22;5029379;28;20049;-69
2022/01/09 01:15:44;;;;;;;13.65;12.43;;;;;;;1.33;77.80;99107.47;5029515;28;20065;-69
2022/01/09 01:18:10;;;;;;;26.27;24.40;;;;;;;1.36;77.57;99108.19;5028138;28;20102;-69
2022/01/09 01:20:37;;;;;;;12.23;8.38;;;;;;;1.16;78.36;99112.44;5039338;28;20071;-69
2022/01/09 01:23:03;;;;;;;16.63;15.10;;;;;;;1.22;78.24;99107.88;5030467;28;20049;-68
2022/01/09 01:25:30;;;;;;;15.95;14.60;;;;;;;1.28;77.95;99099.91;5030680;28;20517;-68
2022/01/09 01:27:58;;;;;;;18.90;17.10;;;;;;;1.49;77.19;99105.94;5029172;28;20145;-69
2022/01/09 01:30:24;;;;;;;13.07;10.43;;;;;;;1.43;77.22;99094.13;5030050;28;20394;-69
2022/01/09 01:32:50;;;;;;;13.32;11.45;;;;;;;1.57;77.06;99096.13;5030840;28;20072;-69
2022/01/09 01:35:17;;;;;;;110.50;101.25;;;;;;;1.44;76.87;99088.03;5030105;28;20076;-69
2022/01/09 01:37:43;;;;;;;51.78;48.35;;;;;;;1.40;77.15;99085.66;5030457;28;20059;-69
2022/01/09 01:40:15;;;;;;;48.95;44.72;;;;;;;1.46;76.92;99082.81;5030066;28;20069;-69
2022/01/09 01:42:42;;;;;;;21.48;19.67;;;;;;;1.47;76.82;99081.94;5029989;28;20103;-68
2022/01/09 01:45:11;;;;;;;16.48;15.02;;;;;;;1.39;76.90;99079.66;5026122;28;20417;-69
2022/01/09 01:47:38;;;;;;;34.35;31.90;;;;;;;1.58;76.64;99064.25;5030260;28;20049;-68
2022/01/09 01:50:06;;;;;;;21.75;20.00;;;;;;;1.68;75.37;99062.94;5022022;28;20046;-68
2022/01/09 01:52:37;;;;;;;93.88;87.57;;;;;;;1.51;75.77;99080.91;5029783;28;20460;-68
2022/01/09 01:55:04;;;;;;;115.13;106.82;;;;;;;1.39;76.09;99065.91;5030123;28;20052;-68
2022/01/09 01:57:32;;;;;;;14.85;13.55;;;;;;;1.69;75.31;99062.03;5030143;28;20132;-69
2022/01/09 01:59:58;;;;;;;14.68;12.35;;;;;;;1.77;74.73;99064.31;5029646;28;20041;-68
2022/01/09 02:02:26;;;;;;;22.92;21.25;;;;;;;1.75;74.55;99054.03;5029636;28;20061;-68
2022/01/09 02:04:53;;;;;;;8.40;6.38;;;;;;;1.79;74.84;99045.25;5030045;28;20509;-69
2022/01/09 02:07:19;;;;;;;39.78;36.83;;;;;;;1.72;74.32;99049.00;5030203;28;20095;-69
2022/01/09 02:09:46;;;;;;;49.78;45.85;;;;;;;1.55;74.89;99048.88;5029481;28;20421;-68
2022/01/09 02:12:12;;;;;;;10.52;8.75;;;;;;;1.72;74.41;99038.66;5029957;28;20087;-68
2022/01/09 02:14:43;;;;;;;14.85;8.30;;;;;;;1.79;73.98;99032.31;5039777;28;20045;-68
2022/01/09 02:17:09;;;;;;;9.50;5.68;;;;;;;1.83;74.35;99039.03;5050030;28;20048;-69
2022/01/09 02:19:37;;;;;;;19.50;17.73;;;;;;;1.94;73.34;99029.06;5029920;28;20453;-69
2022/01/09 02:22:07;;;;;;;11.07;6.43;;;;;;;1.85;73.72;99033.78;5029242;28;20045;-69
2022/01/09 02:24:33;;;;;;;10.43;8.68;;;;;;;1.70;73.97;99037.06;5029841;28;20414;-69
2022/01/09 02:27:04;;;;;;;19.75;18.35;;;;;;;1.61;73.90;99029.69;5029559;28;20041;-69
2022/01/09 02:29:30;;;;;;;11.60;9.05;;;;;;;1.66;74.03;99025.16;5029424;28;20119;-69
2022/01/09 02:31:57;;;;;;;10.70;10.00;;;;;;;1.71;73.38;99007.72;5029727;28;20079;-69
2022/01/09 02:34:23;;;;;;;13.75;12.38;;;;;;;1.77;72.95;99016.06;5030035;28;20045;-69
2022/01/09 02:36:49;;;;;;;9.80;6.53;;;;;;;1.69;73.42;99002.63;5022676;28;20045;-68
2022/01/09 02:39:17;;;;;;;42.17;39.08;;;;;;;1.76;72.77;98998.88;5029830;28;20049;-68
2022/01/09 02:41:43;;;;;;;87.05;81.80;;;;;;;1.81;72.55;99004.66;5028503;28;20104;-68
2022/01/09 02:44:10;;;;;;;37.63;34.50;;;;;;;1.64;73.57;98999.38;5027670;28;20046;-68
2022/01/09 02:46:50;;;;;;;12.18;8.05;;;;;;;2.00;72.48;98993.50;5027890;28;20048;-69
2022/01/09 02:49:16;;;;;;;5.40;4.90;;;;;;;1.64;73.58;98998.53;5025801;28;20416;-69
2022/01/09 02:51:45;;;;;;;19.48;17.88;;;;;;;1.75;73.38;98986.84;5019443;28;20046;-69
2022/01/09 02:56:53;;;;;;;19.05;17.25;;;;;;;1.94;72.22;98982.53;5026112;28;20052;-69
2022/01/09 02:59:20;;;;;;;9.98;5.95;;;;;;;2.01;72.27;98974.50;5026778;28;20460;-69
2022/01/09 03:01:46;;;;;;;11.00;6.45;;;;;;;2.08;72.03;98971.56;5027110;28;20049;-69
2022/01/09 03:04:12;;;;;;;16.17;15.07;;;;;;;2.18;71.18;98969.44;5026754;28;20049;-69
2022/01/09 03:06:39;;;;;;;7.78;6.50;;;;;;;1.92;72.08;98968.84;5030107;28;20119;-69
2022/01/09 03:09:07;;;;;;;20.17;18.42;;;;;;;2.00;72.07;98965.06;5029976;28;20092;-69
2022/01/09 03:11:34;;;;;;;47.92;44.22;;;;;;;1.76;72.85;98952.34;5021509;28;20657;-69
2022/01/09 03:14:01;;;;;;;12.55;11.50;;;;;;;1.85;72.71;98971.75;5027403;28;20135;-69
2022/01/09 03:16:28;;;;;;;33.78;31.70;;;;;;;1.90;72.54;98962.91;5028481;28;20049;-69
2022/01/09 03:18:54;;;;;;;13.38;12.02;;;;;;;1.86;72.87;98963.94;5049533;28;20064;-68
2022/01/09 03:21:20;;;;;;;17.40;15.80;;;;;;;1.70;73.32;98962.13;5051418;28;20052;-68
2022/01/09 03:23:47;;;;;;;24.20;22.67;;;;;;;1.71;73.23;98967.22;5048646;28;20049;-68
2022/01/09 03:26:13;;;;;;;11.70;10.90;;;;;;;1.85;72.95;98961.41;5042632;28;20033;-68
2022/01/09 03:28:40;;;;;;;47.30;44.33;;;;;;;1.95;72.55;98949.78;5052074;28;20040;-68
2022/01/09 03:31:07;;;;;;;9.25;8.40;;;;;;;1.73;73.53;98947.34;5051899;28;20025;-68
2022/01/09 03:33:34;;;;;;;6.75;5.57;;;;;;;1.84;73.03;98946.84;5046609;28;20033;-68
2022/01/09 03:36:00;;;;;;;15.18;6.30;;;;;;;2.01;73.03;98948.66;5051940;28;20037;-69
2022/01/09 03:38:26;;;;;;;48.22;44.70;;;;;;;1.74;73.26;98950.72;5049187;28;20076;-68
2022/01/09 03:40:53;;;;;;;28.45;26.27;;;;;;;1.77;73.71;98950.63;5026194;28;20120;-68
2022/01/09 03:43:19;;;;;;;6.95;6.00;;;;;;;2.06;72.81;98941.53;5025629;28;20468;-68
2022/01/09 03:45:45;;;;;;;15.38;14.02;;;;;;;1.95;72.97;98942.03;5025815;28;20045;-68
2022/01/09 03:48:13;;;;;;;10.80;5.95;;;;;;;2.01;73.09;98931.41;5026327;28;20099;-69
2022/01/09 03:50:41;;;;;;;12.52;11.38;;;;;;;2.01;73.12;98934.00;5027874;28;20045;-68
2022/01/09 03:53:12;;;;;;;10.85;5.63;;;;;;;2.01;73.21;98933.16;5026167;28;20049;-68
2022/01/09 03:55:38;;;;;;;8.73;5.38;;;;;;;2.13;73.20;98932.59;5026798;28;20125;-68
2022/01/09 03:58:06;;;;;;;6.22;5.65;;;;;;;1.98;73.34;98925.53;5026255;28;20099;-68
2022/01/09 04:00:32;;;;;;;10.32;8.23;;;;;;;1.86;73.92;98927.78;5018352;28;20042;-68
2022/01/09 04:02:59;;;;;;;43.47;40.55;;;;;;;1.71;74.23;98923.28;5029115;28;20045;-68
2022/01/09 04:05:26;;;;;;;12.73;8.35;;;;;;;1.97;73.61;98929.88;5030259;28;20494;-67
2022/01/09 04:07:53;;;;;;;7.43;6.65;;;;;;;1.95;73.72;98924.78;5030454;28;20107;-69
2022/01/09 04:10:20;;;;;;;11.70;7.43;;;;;;;1.95;74.10;98922.19;5030393;28;20037;-67
2022/01/09 04:12:57;;;;;;;7.22;5.05;;;;;;;2.20;73.12;98918.47;5030844;28;20045;-69
2022/01/09 04:15:24;;;;;;;26.25;24.38;;;;;;;2.14;73.04;98923.94;5028842;28;20410;-68
2022/01/09 04:17:51;;;;;;;11.93;6.30;;;;;;;1.83;74.46;98920.16;5031620;28;20049;-68
2022/01/09 04:20:19;;;;;;;8.68;7.15;;;;;;;1.89;74.48;98924.19;5026953;28;20498;-68
2022/01/09 04:22:48;;;;;;;11.43;8.32;;;;;;;2.15;73.65;98920.41;5027638;28;20092;-68
2022/01/09 04:25:15;;;;;;;11.48;10.60;;;;;;;2.18;73.64;98928.06;5032550;28;20049;-69
2022/01/09 04:27:41;;;;;;;11.05;9.15;;;;;;;2.02;74.33;98927.91;5032774;28;20050;-68
2022/01/09 04:30:08;;;;;;;11.00;9.05;;;;;;;2.44;72.63;98922.47;5032315;28;20037;-69
2022/01/09 04:32:35;;;;;;;10.18;9.07;;;;;;;2.51;72.47;98908.38;5031775;28;20049;-69
2022/01/09 04:35:01;;;;;;;6.90;6.20;;;;;;;2.04;74.29;98915.75;5032132;28;20659;-68
2022/01/09 04:37:28;;;;;;;7.80;6.60;;;;;;;2.05;74.35;98911.41;5032013;28;20042;-69
2022/01/09 04:39:57;;;;;;;8.73;7.93;;;;;;;2.34;73.31;98916.91;5031972;28;20064;-68
2022/01/09 04:42:29;;;;;;;9.15;6.03;;;;;;;2.48;72.96;98918.84;5031946;28;20053;-68
2022/01/09 04:44:56;;;;;;;8.85;7.97;;;;;;;2.24;73.66;98914.84;5031757;28;20065;-68
2022/01/09 04:47:22;;;;;;;7.55;6.60;;;;;;;2.50;72.66;98918.78;5031863;28;20131;-68
2022/01/09 04:49:50;;;;;;;10.15;9.27;;;;;;;2.64;72.46;98918.94;5031480;28;20050;-68
2022/01/09 04:52:19;;;;;;;9.50;8.82;;;;;;;2.52;72.71;98912.59;5031639;28;20049;-69
2022/01/09 04:54:46;;;;;;;9.82;6.65;;;;;;;2.46;72.99;98912.91;5031578;28;20068;-68
2022/01/09 04:57:14;;;;;;;8.00;6.40;;;;;;;2.27;73.74;98914.69;5031515;28;20067;-68
2022/01/09 04:59:40;;;;;;;7.68;7.13;;;;;;;2.14;73.71;98908.44;5031369;28;20042;-68
2022/01/09 05:02:06;;;;;;;8.05;6.47;;;;;;;2.62;72.60;98913.88;5031324;28;20139;-68
2022/01/09 05:04:33;;;;;;;9.82;7.72;;;;;;;2.53;72.69;98914.28;5031229;28;20045;-68
2022/01/09 05:06:59;;;;;;;8.48;7.32;;;;;;;2.53;72.42;98916.88;5031364;28;20049;-69
2022/01/09 05:09:26;;;;;;;11.88;6.15;;;;;;;2.20;73.60;98924.47;5030668;28;20049;-69
2022/01/09 05:11:52;;;;;;;8.63;6.65;;;;;;;2.29;73.55;98924.03;5031346;28;20576;-69
2022/01/09 05:14:20;;;;;;;8.95;6.65;;;;;;;2.68;72.15;98917.88;5029974;28;20041;-68
2022/01/09 05:16:47;;;;;;;7.30;6.60;;;;;;;2.63;71.93;98915.50;5031322;28;20080;-68
2022/01/09 05:19:19;;;;;;;6.75;6.05;;;;;;;2.12;73.98;98917.97;5030653;28;20398;-69
2022/01/09 05:21:46;;;;;;;10.65;6.45;;;;;;;2.37;73.41;98921.09;5030150;28;20481;-69
2022/01/09 05:24:13;;;;;;;14.88;13.55;;;;;;;2.19;73.55;98924.53;5030763;28;20041;-69
2022/01/09 05:26:40;;;;;;;8.15;5.65;;;;;;;2.47;73.05;98919.78;5031481;28;20042;-69
2022/01/09 05:29:06;;;;;;;15.38;14.18;;;;;;;2.38;72.96;98915.88;5030104;28;20053;-69
2022/01/09 05:31:34;;;;;;;7.63;6.82;;;;;;;2.63;72.42;98918.09;5030874;28;20135;-69
2022/01/09 05:34:00;;;;;;;13.20;11.90;;;;;;;2.58;72.08;98922.69;5033840;28;20576;-68
2022/01/09 05:36:26;;;;;;;22.52;20.85;;;;;;;2.13;73.43;98911.91;5031095;28;20099;-68
2022/01/09 05:38:53;;;;;;;8.90;6.32;;;;;;;2.51;73.03;98921.31;5030113;28;20500;-69
2022/01/09 05:41:19;;;;;;;9.30;5.68;;;;;;;2.91;71.51;98923.63;5030633;28;20474;-69
2022/01/09 05:43:45;;;;;;;9.52;6.55;;;;;;;2.58;72.43;98924.44;5030802;28;20041;-69
2022/01/09 05:46:12;;;;;;;6.70;5.82;;;;;;;2.75;71.72;98927.88;5031532;28;20100;-68
2022/01/09 05:48:40;;;;;;;7.72;5.55;;;;;;;2.89;71.57;98924.59;5030112;28;20506;-68
2022/01/09 05:51:07;;;;;;;9.55;8.55;;;;;;;2.70;72.05;98922.06;5030102;28;20045;-69
2022/01/09 05:53:33;;;;;;;8.80;6.05;;;;;;;2.67;72.02;98935.16;5030414;28;20135;-69
2022/01/09 05:55:59;;;;;;;25.30;23.15;;;;;;;2.28;72.99;98924.97;5030474;28;20480;-69
2022/01/09 05:58:26;;;;;;;7.88;6.93;;;;;;;2.58;72.83;98935.63;5029672;28;20398;-68
2022/01/09 06:00:52;;;;;;;12.85;11.65;;;;;;;2.48;73.12;98926.59;5028982;28;20045;-68
2022/01/09 06:03:18;;;;;;;8.20;6.03;;;;;;;2.71;72.55;98934.09;5030516;28;20038;-68
2022/01/09 06:05:46;;;;;;;9.07;6.10;;;;;;;2.86;71.49;98928.19;5030081;28;20053;-69
2022/01/09 06:08:12;;;;;;;14.30;13.25;;;;;;;2.36;73.22;98938.38;5029910;28;20091;-69
2022/01/09 06:10:39;;;;;;;6.80;5.93;;;;;;;2.42;74.09;98929.47;5029843;28;20045;-68
2022/01/09 06:13:05;;;;;;;8.52;6.55;;;;;;;2.54;74.08;98928.91;5030328;28;20053;-68
2022/01/09 06:15:31;;;;;;;7.40;5.78;;;;;;;2.35;74.65;98926.34;5028475;28;20115;-68
2022/01/09 06:17:58;;;;;;;12.63;7.93;;;;;;;1.92;76.90;98932.66;5029430;28;20041;-68
2022/01/09 06:20:24;;;;;;;7.22;6.63;;;;;;;2.30;76.09;98932.63;5022988;28;20080;-68
2022/01/09 06:22:52;;;;;;;11.30;6.60;;;;;;;2.77;75.22;98933.78;5029583;28;20418;-68
2022/01/09 06:25:18;;;;;;;9.07;7.25;;;;;;;2.59;75.92;98934.69;5029659;28;20065;-68
2022/01/09 06:27:44;;;;;;;9.20;5.97;;;;;;;2.55;76.70;98938.31;5029256;28;20099;-68
2022/01/09 06:30:12;;;;;;;10.73;9.27;;;;;;;2.31;78.23;98923.97;5030078;28;20045;-68
2022/01/09 06:32:38;;;;;;;9.88;8.98;;;;;;;1.95;79.94;98923.94;5029754;28;20068;-68
2022/01/09 06:35:06;;;;;;;8.73;7.93;;;;;;;1.73;81.71;98929.25;5029606;28;20080;-68
2022/01/09 06:37:33;;;;;;;10.90;8.57;;;;;;;1.85;81.88;98925.25;5029270;28;20473;-67
2022/01/09 06:40:01;;;;;;;9.93;8.50;;;;;;;2.29;80.50;98925.81;5029300;28;20092;-67
2022/01/09 06:42:27;;;;;;;10.65;8.60;;;;;;;2.16;81.04;98928.13;5029695;28;20099;-67
2022/01/09 06:44:53;;;;;;;17.00;12.90;;;;;;;2.07;81.50;98928.53;5029553;28;20061;-67
2022/01/09 06:47:20;;;;;;;32.22;29.58;;;;;;;1.61;83.07;98928.94;5029297;28;20115;-67
2022/01/09 06:49:47;;;;;;;14.02;9.95;;;;;;;1.34;84.97;98936.13;5028868;28;20076;-67
2022/01/09 06:52:13;;;;;;;13.68;8.82;;;;;;;1.87;83.47;98933.78;5028939;28;20502;-67
2022/01/09 06:54:40;;;;;;;26.33;24.23;;;;;;;1.70;83.18;98924.19;5029046;28;20042;-67
2022/01/09 06:57:08;;;;;;;10.50;9.25;;;;;;;1.85;83.73;98925.25;5028081;28;20567;-67
2022/01/09 06:59:34;;;;;;;14.15;9.63;;;;;;;1.93;83.38;98934.34;5029012;28;20061;-67
2022/01/09 07:02:00;;;;;;;12.25;9.00;;;;;;;2.10;82.75;98927.56;5029184;28;20199;-67
2022/01/09 07:04:27;;;;;;;16.17;8.98;;;;;;;2.37;81.50;98921.09;5004284;28;20111;-67
2022/01/09 07:06:53;;;;;;;18.35;11.88;;;;;;;1.63;83.73;98916.78;4990295;28;20056;-67
2022/01/09 07:09:19;;;;;;;15.85;9.32;;;;;;;2.18;82.55;98922.88;4995355;28;20103;-67
2022/01/09 07:11:46;;;;;;;10.20;8.60;;;;;;;1.87;83.29;98929.47;5007075;28;20053;-67
2022/01/09 07:14:14;;;;;;;11.20;9.38;;;;;;;1.55;83.96;98927.47;5026765;28;20099;-67
2022/01/09 07:16:41;;;;;;;21.42;19.58;;;;;;;1.60;83.53;98930.69;5026626;28;20045;-67
2022/01/09 07:19:07;;;;;;;14.30;11.35;;;;;;;1.79;83.14;98936.72;5026024;28;20095;-67
2022/01/09 07:21:33;;;;;;;14.55;7.82;;;;;;;1.76;83.45;98947.19;5020175;28;20103;-68
2022/01/09 07:24:00;;;;;;;12.75;10.70;;;;;;;1.77;82.89;98938.53;5026206;28;20072;-67
2022/01/09 07:26:26;;;;;;;15.50;8.95;;;;;;;1.82;82.14;98946.06;5026134;28;20053;-67
2022/01/09 07:28:52;;;;;;;21.13;19.38;;;;;;;1.49;83.51;98943.22;5018267;28;20046;-68
2022/01/09 07:31:20;;;;;;;12.93;11.63;;;;;;;1.68;82.72;98953.59;5026177;28;20448;-68
2022/01/09 07:33:46;;;;;;;11.52;7.95;;;;;;;1.96;82.11;98948.84;5026058;28;20088;-68
2022/01/09 07:36:15;;;;;;;64.07;59.22;;;;;;;1.90;81.52;98952.56;5026481;28;20514;-68
2022/01/09 07:38:41;;;;;;;22.92;20.95;;;;;;;1.70;82.37;98957.78;5026356;28;20077;-68
2022/01/09 07:41:12;;;;;;;9.98;8.70;;;;;;;2.03;81.62;98960.63;5025020;28;20115;-68
2022/01/09 07:43:38;;;;;;;9.90;8.40;;;;;;;1.99;81.73;98956.50;5025280;28;20053;-68
2022/01/09 07:46:05;;;;;;;12.07;8.82;;;;;;;2.58;79.73;98969.25;5026419;28;20045;-68
2022/01/09 07:48:33;;;;;;;14.27;9.10;;;;;;;2.81;78.40;98975.88;5028094;28;20041;-68
2022/01/09 07:50:59;;;;;;;11.43;8.38;;;;;;;2.62;78.61;98970.78;5028448;28;20045;-68
2022/01/09 07:53:25;;;;;;;9.00;8.07;;;;;;;2.90;77.79;98963.34;5026136;28;20096;-68
2022/01/09 07:55:52;;;;;;;11.20;7.40;;;;;;;2.62;78.87;98970.78;5025982;28;20421;-68
2022/01/09 07:58:19;;;;;;;8.32;7.05;;;;;;;2.65;78.51;98967.19;5025859;28;20670;-68
2022/01/09 08:00:45;;;;;;;9.57;8.18;;;;;;;2.45;79.06;98968.97;5026575;28;20053;-68
2022/01/09 08:03:12;;;;;;;10.80;8.82;;;;;;;2.57;79.77;98974.47;5026668;28;20568;-68
2022/01/09 08:05:39;;;;;;;11.13;7.50;;;;;;;2.76;78.77;98976.13;5024166;28;20486;-68
2022/01/09 08:08:06;;;;;;;12.52;8.95;;;;;;;2.58;79.29;98977.00;5019693;28;20049;-68
2022/01/09 08:10:33;;;;;;;20.70;19.15;;;;;;;2.59;78.55;98978.66;5025682;28;20107;-68
2022/01/09 08:13:00;;;;;;;11.35;9.15;;;;;;;2.31;80.67;98981.72;5026159;28;20064;-68
2022/01/09 08:15:27;;;;;;;10.45;8.38;;;;;;;2.10;81.65;98976.69;5025278;28;20041;-68
2022/01/09 08:17:54;;;;;;;17.17;15.80;;;;;;;2.40;79.77;98989.03;5025653;28;20476;-68
2022/01/09 08:20:21;;;;;;;9.40;8.50;;;;;;;2.99;78.29;98992.31;5015983;28;20096;-68
2022/01/09 08:22:49;;;;;;;11.80;8.25;;;;;;;2.87;78.75;98992.00;5017856;28;20102;-68
2022/01/09 08:25:16;;;;;;;11.05;7.75;;;;;;;3.17;77.40;98989.66;5016741;28;20046;-68
2022/01/09 08:27:44;;;;;;;8.85;7.90;;;;;;;3.22;77.45;98997.19;5029618;28;20045;-68
2022/01/09 08:30:11;;;;;;;11.20;8.00;;;;;;;3.25;77.21;98994.47;5025303;28;20037;-68
2022/01/09 08:32:39;;;;;;;13.55;7.85;;;;;;;3.33;77.00;98994.88;5008268;28;20465;-68
2022/01/09 08:35:06;;;;;;;9.90;7.07;;;;;;;3.83;75.32;98994.94;5024776;28;20123;-68
2022/01/09 08:37:33;;;;;;;10.18;6.88;;;;;;;4.17;74.05;99000.03;5025935;28;20092;-68
2022/01/09 08:40:01;;;;;;;10.50;7.30;;;;;;;3.54;75.26;99008.53;5024949;28;20081;-68
2022/01/09 08:42:27;;;;;;;9.05;7.60;;;;;;;3.88;74.98;98998.13;5025418;28;20073;-68
2022/01/09 08:44:53;;;;;;;8.75;7.00;;;;;;;3.97;74.68;98995.03;5026878;28;20045;-68
2022/01/09 08:47:20;;;;;;;8.35;7.00;;;;;;;4.03;74.69;99004.25;5028543;28;20076;-68
2022/01/09 08:49:46;;;;;;;12.57;7.10;;;;;;;4.33;73.67;99008.66;5028413;28;20048;-68
2022/01/09 08:52:12;;;;;;;10.35;6.65;;;;;;;4.34;73.95;99007.72;5031076;28;20049;-68
2022/01/09 08:54:38;;;;;;;11.38;6.88;;;;;;;4.12;74.04;99016.72;5038810;28;20100;-68
2022/01/09 08:57:07;;;;;;;9.57;7.30;;;;;;;3.97;74.61;99012.34;5022812;28;20061;-68
2022/01/09 08:59:34;;;;;;;9.10;6.95;;;;;;;3.69;75.61;99012.94;5029182;28;20054;-68
2022/01/09 09:02:00;;;;;;;9.93;8.75;;;;;;;3.52;76.83;99016.38;5021232;28;20041;-68
2022/01/09 09:04:26;;;;;;;10.90;7.78;;;;;;;3.11;78.24;99017.59;5029329;28;20505;-68
2022/01/09 09:06:53;;;;;;;10.07;7.18;;;;;;;3.33;77.68;99018.19;5041544;28;20073;-68
2022/01/09 09:09:19;;;;;;;8.52;6.38;;;;;;;3.27;78.14;99021.09;5041625;28;20049;-67
2022/01/09 09:11:48;;;;;;;11.63;7.72;;;;;;;3.64;76.47;99030.47;5032560;28;20046;-67
2022/01/09 09:14:17;;;;;;;8.07;7.20;;;;;;;3.93;75.31;99024.63;5048034;28;20036;-67
2022/01/09 09:16:43;;;;;;;9.30;7.60;;;;;;;3.55;76.36;99049.09;5048089;28;20094;-67
2022/01/09 09:19:10;;;;;;;10.55;7.30;;;;;;;3.26;78.05;99046.16;5033595;28;20069;-67
2022/01/09 09:21:36;;;;;;;11.50;6.85;;;;;;;3.60;76.96;99044.50;5034805;28;20077;-67
2022/01/09 09:24:03;;;;;;;12.73;7.57;;;;;;;3.73;76.51;99051.56;5020686;28;20054;-66
2022/01/09 09:26:29;;;;;;;12.40;8.38;;;;;;;3.77;76.71;99055.69;5025345;28;20502;-66
2022/01/09 09:28:56;;;;;;;9.85;7.07;;;;;;;3.26;77.90;99042.72;5026680;28;20049;-66
2022/01/09 09:31:25;;;;;;;9.50;6.72;;;;;;;2.83;79.70;99060.34;5019074;28;20122;-66
2022/01/09 09:33:52;;;;;;;9.15;6.95;;;;;;;3.32;78.65;99051.06;5022428;28;20179;-66
2022/01/09 09:36:21;;;;;;;14.95;8.48;;;;;;;3.40;77.23;99058.44;5034794;28;20041;-66
2022/01/09 09:38:48;;;;;;;8.82;7.95;;;;;;;3.62;77.52;99064.22;5042865;28;20052;-66
2022/01/09 09:41:14;;;;;;;9.35;6.75;;;;;;;3.96;76.02;99070.31;5031197;28;20099;-66
2022/01/09 09:43:40;;;;;;;8.57;7.30;;;;;;;4.03;75.87;99061.31;5040997;28;20065;-65
2022/01/09 09:46:07;;;;;;;8.65;7.75;;;;;;;3.96;75.33;99068.56;5040514;28;20057;-66
2022/01/09 09:48:34;;;;;;;11.75;6.95;;;;;;;3.88;75.64;99074.13;5038749;28;20481;-66
2022/01/09 09:51:01;;;;;;;8.25;7.30;;;;;;;3.91;75.60;99073.16;5034316;28;20579;-65
2022/01/09 09:53:27;;;;;;;8.60;6.90;;;;;;;4.04;75.55;99070.75;5038513;28;20548;-66
2022/01/09 09:55:54;;;;;;;9.18;6.35;;;;;;;3.81;76.60;99084.88;5035239;28;20053;-66
2022/01/09 09:58:22;;;;;;;8.25;6.40;;;;;;;3.77;76.38;99078.22;5045113;28;20049;-65
2022/01/09 10:00:53;;;;;;;8.15;6.32;;;;;;;4.14;75.43;99079.75;5025519;28;20050;-65
2022/01/09 10:03:27;;;;;;;6.68;5.97;;;;;;;4.27;75.43;99091.16;5023928;28;20049;-66
2022/01/09 10:05:55;;;;;;;12.65;6.80;;;;;;;4.37;74.96;99079.38;5011929;28;20049;-66
2022/01/09 10:08:22;;;;;;;9.23;6.43;;;;;;;4.64;74.06;99077.06;5037211;28;20053;-66
2022/01/09 10:10:49;;;;;;;9.00;6.50;;;;;;;4.50;74.79;99080.41;5029419;28;20394;-66
2022/01/09 10:13:17;;;;;;;8.88;6.43;;;;;;;4.49;74.86;99089.13;5044645;28;20098;-65
2022/01/09 10:15:46;;;;;;;11.20;6.55;;;;;;;4.57;75.09;99096.50;5033596;28;20062;-65
2022/01/09 10:18:12;;;;;;;10.30;6.80;;;;;;;4.43;74.87;99099.00;5026729;28;20125;-65
2022/01/09 10:20:38;;;;;;;8.20;7.50;;;;;;;4.10;77.02;99101.59;5033205;28;20421;-65
2022/01/09 10:23:07;;;;;;;8.27;7.28;;;;;;;3.75;79.46;99101.59;5035013;28;20040;-65
2022/01/09 10:25:36;;;;;;;10.63;9.63;;;;;;;3.79;78.87;99108.31;5031610;28;20394;-65
2022/01/09 10:28:05;;;;;;;13.65;12.68;;;;;;;4.00;78.16;99108.13;5017900;28;20053;-65
2022/01/09 10:30:33;;;;;;;7.78;7.07;;;;;;;4.32;77.42;99102.16;5024453;28;20118;-65
2022/01/09 10:33:01;;;;;;;9.25;8.32;;;;;;;4.49;77.87;99107.28;5029615;28;20088;-65
2022/01/09 10:35:29;;;;;;;9.20;8.40;;;;;;;5.00;76.43;99105.38;5037153;28;20048;-65
2022/01/09 10:38:13;;;;;;;7.85;7.03;;;;;;;4.98;75.85;99104.66;5022566;28;20045;-65
2022/01/09 10:40:42;;;;;;;6.20;5.70;;;;;;;5.05;75.13;99101.63;5036134;28;20044;-65
2022/01/09 10:43:13;;;;;;;7.32;6.68;;;;;;;4.87;75.89;99108.69;5040773;28;20521;-66
2022/01/09 10:45:42;;;;;;;6.60;6.10;;;;;;;4.65;76.79;99115.09;5028121;28;20572;-66
2022/01/09 10:48:11;;;;;;;13.85;12.95;;;;;;;4.60;75.96;99110.16;5017707;28;20064;-66
2022/01/09 10:50:41;;;;;;;7.72;6.93;;;;;;;4.67;77.60;99113.25;5034966;28;20092;-66
2022/01/09 10:53:27;;;;;;;7.85;7.15;;;;;;;5.01;75.73;99113.09;5028409;28;20057;-66
2022/01/09 10:56:08;;;;;;;7.90;7.30;;;;;;;4.88;75.61;99118.13;5005362;28;20045;-66
2022/01/09 10:58:36;;;;;;;8.50;6.67;;;;;;;4.74;77.85;99122.38;5016457;28;20042;-66
2022/01/09 11:01:23;;;;;;;11.65;10.80;;;;;;;4.68;77.23;99127.91;5024499;28;20091;-66
2022/01/09 11:03:52;;;;;;;8.32;7.15;;;;;;;4.87;77.76;99129.47;5025626;28;20045;-67
2022/01/09 11:06:21;;;;;;;11.40;10.75;;;;;;;4.62;78.38;99136.84;5026247;28;20041;-66
2022/01/09 11:08:49;;;;;;;11.20;10.20;;;;;;;4.75;77.36;99134.44;5026600;28;20422;-67
2022/01/09 11:11:23;;;;;;;14.10;13.10;;;;;;;4.60;78.08;99143.06;5026664;28;20103;-66
2022/01/09 11:13:53;;;;;;;7.75;7.15;;;;;;;4.69;78.32;99138.19;5017485;28;20086;-66
2022/01/09 11:16:36;;;;;;;9.75;7.57;;;;;;;4.88;77.93;99146.69;5021182;28;20096;-66
2022/01/09 11:19:08;;;;;;;11.38;8.10;;;;;;;4.57;78.46;99144.06;5026473;28;20052;-66
2022/01/09 11:21:36;;;;;;;13.25;12.23;;;;;;;4.34;80.63;99147.84;5025034;28;20142;-66
2022/01/09 11:24:19;;;;;;;12.50;8.15;;;;;;;4.64;80.23;99150.59;5040628;28;20053;-66
2022/01/09 11:26:50;;;;;;;16.38;15.18;;;;;;;4.83;78.78;99161.69;5028835;28;20059;-66
2022/01/09 11:29:26;;;;;;;9.63;8.68;;;;;;;4.95;78.01;99156.78;5011283;28;20053;-66
2022/01/09 11:31:59;;;;;;;9.02;7.63;;;;;;;4.77;78.27;99156.81;5028323;28;20465;-66
2022/01/09 11:34:34;;;;;;;7.25;6.65;;;;;;;5.24;77.20;99161.22;5028285;28;20045;-66
2022/01/09 11:37:14;;;;;;;9.20;8.30;;;;;;;5.61;76.21;99154.81;5025321;28;20091;-66
2022/01/09 11:39:44;;;;;;;10.32;7.50;;;;;;;5.91;74.95;99167.88;5023132;28;20064;-66